createdAt,value
2022-08-07T00:01:44.256Z,16.25
2022-08-07T00:04:15.810Z,16.28
2022-08-07T00:06:51.178Z,16.25
2022-08-07T00:09:22.292Z,16.22
2022-08-07T00:11:55.941Z,16.19
2022-08-07T00:14:30.956Z,16.16
2022-08-07T00:17:02.765Z,16.19
2022-08-07T00:19:34.325Z,16.20
2022-08-07T00:22:24.848Z,16.17
2022-08-07T00:25:11.127Z,16.15
2022-08-07T00:27:52.395Z,16.15
2022-08-07T00:30:27.604Z,16.13
2022-08-07T00:33:00.930Z,16.06
2022-08-07T00:35:30.874Z,16.03
2022-08-07T00:38:04.228Z,16.02
2022-08-07T00:40:39.272Z,16.02
2022-08-07T00:43:59.858Z,16.00
2022-08-07T00:46:01.872Z,15.99
2022-08-07T00:48:32.349Z,15.95
2022-08-07T00:51:02.634Z,15.94
2022-08-07T00:53:39.084Z,15.88
2022-08-07T00:56:18.937Z,15.88
2022-08-07T00:58:49.596Z,15.84
2022-08-07T01:01:18.799Z,15.83
2022-08-07T01:03:56.313Z,15.80
2022-08-07T01:06:30.175Z,15.77
2022-08-07T01:09:01.049Z,15.77
2022-08-07T01:12:09.226Z,15.80
2022-08-07T01:14:21.369Z,15.73
2022-08-07T01:16:57.422Z,15.67
2022-08-07T01:19:32.625Z,15.63
2022-08-07T01:22:03.090Z,15.62
2022-08-07T01:24:37.186Z,15.57
2022-08-07T01:27:17.704Z,15.54
2022-08-07T01:29:50.758Z,15.50
2022-08-07T01:32:22.444Z,15.46
2022-08-07T01:34:52.684Z,15.43
2022-08-07T01:37:21.815Z,15.37
2022-08-07T01:39:53.143Z,15.36
2022-08-07T01:42:58.674Z,15.32
2022-08-07T01:45:36.892Z,15.34
2022-08-07T01:48:20.483Z,15.30
2022-08-07T01:51:24.207Z,15.23
2022-08-07T01:54:08.988Z,15.23
2022-08-07T01:56:55.291Z,15.21
2022-08-07T01:59:47.275Z,15.15
2022-08-07T02:03:11.626Z,15.14
2022-08-07T02:05:43.155Z,15.10
2022-08-07T02:08:20.867Z,15.11
2022-08-07T02:10:54.868Z,15.06
2022-08-07T02:13:57.533Z,15.05
2022-08-07T02:16:28.556Z,15.02
2022-08-07T02:20:05.586Z,14.97
2022-08-07T02:21:59.602Z,14.97
2022-08-07T02:24:30.154Z,14.93
2022-08-07T02:27:02.719Z,14.90
2022-08-07T02:29:36.845Z,14.89
2022-08-07T02:32:19.152Z,14.87
2022-08-07T02:34:53.248Z,14.83
2022-08-07T02:37:26.904Z,14.82
2022-08-07T02:40:12.081Z,14.79
2022-08-07T02:42:48.953Z,14.77
2022-08-07T02:46:00.420Z,14.72
2022-08-07T02:48:10.231Z,14.70
2022-08-07T02:50:48.763Z,14.67
2022-08-07T02:53:38.482Z,14.62
2022-08-07T02:56:20.979Z,14.60
2022-08-07T02:58:54.201Z,14.57
2022-08-07T03:01:35.387Z,14.55
2022-08-07T03:04:13.054Z,14.54
2022-08-07T03:06:45.965Z,14.53
2022-08-07T03:09:43.758Z,14.50
2022-08-07T03:12:22.193Z,14.45
2022-08-07T03:14:53.290Z,14.45
2022-08-07T03:17:23.164Z,14.41
2022-08-07T03:19:55.046Z,14.40
2022-08-07T03:22:30.491Z,14.34
2022-08-07T03:25:00.855Z,14.35
2022-08-07T03:27:58.810Z,14.32
2022-08-07T03:30:25.967Z,14.31
2022-08-07T03:32:58.833Z,14.29
2022-08-07T03:35:43.989Z,14.25
2022-08-07T03:38:21.372Z,14.24
2022-08-07T03:41:00.506Z,14.24
2022-08-07T03:43:32.473Z,14.22
2022-08-07T03:46:04.424Z,14.21
2022-08-07T03:49:03.005Z,14.14
2022-08-07T03:51:47.786Z,14.18
2022-08-07T03:54:35.641Z,14.13
2022-08-07T03:58:35.293Z,14.10
2022-08-07T04:00:04.130Z,14.10
2022-08-07T04:02:47.454Z,14.07
2022-08-07T04:05:39.616Z,14.04
2022-08-07T04:08:16.135Z,14.02
2022-08-07T04:10:54.186Z,14.02
2022-08-07T04:14:10.006Z,13.98
2022-08-07T04:16:31.106Z,13.96
2022-08-07T04:19:14.767Z,13.97
2022-08-07T04:21:48.066Z,13.95
2022-08-07T04:24:34.086Z,13.93
2022-08-07T04:27:20.822Z,13.96
2022-08-07T04:29:58.474Z,13.97
2022-08-07T04:32:37.332Z,14.00
2022-08-07T04:35:11.235Z,13.98
2022-08-07T04:38:00.871Z,14.00
2022-08-07T04:40:29.956Z,14.01
2022-08-07T04:43:01.712Z,14.05
2022-08-07T04:46:29.278Z,14.07
2022-08-07T04:49:37.714Z,14.10
2022-08-07T04:52:59.738Z,14.16
2022-08-07T04:58:14.032Z,14.19
2022-08-07T05:00:11.678Z,14.25
2022-08-07T05:02:54.823Z,14.34
2022-08-07T05:06:16.499Z,14.41
2022-08-07T05:09:15.060Z,14.47
2022-08-07T05:11:58.667Z,14.49
2022-08-07T05:14:58.982Z,14.57
2022-08-07T05:18:00.647Z,14.64
2022-08-07T05:20:32.863Z,14.68
2022-08-07T05:23:15.827Z,14.72
2022-08-07T05:26:10.477Z,14.73
2022-08-07T05:28:35.889Z,14.79
2022-08-07T05:31:05.584Z,14.82
2022-08-07T05:33:38.725Z,14.86
2022-08-07T05:36:12.038Z,14.90
2022-08-07T05:39:00.908Z,14.94
2022-08-07T05:42:00.240Z,15.02
2022-08-07T05:44:29.700Z,15.08
2022-08-07T05:47:02.009Z,15.14
2022-08-07T05:49:52.017Z,15.19
2022-08-07T05:52:32.348Z,15.25
2022-08-07T05:55:07.051Z,15.31
2022-08-07T05:57:42.350Z,15.37
2022-08-07T06:08:33.220Z,15.59
2022-08-07T06:11:09.166Z,15.69
2022-08-07T06:14:11.731Z,15.75
2022-08-07T06:16:33.442Z,15.87
2022-08-07T06:19:06.513Z,15.92
2022-08-07T06:22:14.587Z,16.02
2022-08-07T06:24:45.475Z,16.07
2022-08-07T06:27:59.868Z,16.19
2022-08-07T06:30:32.009Z,16.31
2022-08-07T06:33:04.956Z,16.41
2022-08-07T06:35:45.588Z,16.50
2022-08-07T06:38:19.859Z,16.60
2022-08-07T06:40:54.609Z,16.68
2022-08-07T06:43:26.716Z,16.76
2022-08-07T06:46:31.041Z,16.89
2022-08-07T06:49:05.035Z,17.00
2022-08-07T06:51:49.661Z,17.08
2022-08-07T06:55:29.791Z,17.21
2022-08-07T06:57:09.696Z,17.28
2022-08-07T07:00:12.030Z,17.40
2022-08-07T07:02:53.354Z,17.46
2022-08-07T07:06:03.163Z,17.58
2022-08-07T07:08:18.177Z,17.71
2022-08-07T07:10:56.427Z,17.81
2022-08-07T07:13:56.508Z,17.86
2022-08-07T07:16:45.379Z,18.04
2022-08-07T07:19:55.776Z,18.16
2022-08-07T07:22:36.972Z,18.25
2022-08-07T07:26:31.669Z,18.36
2022-08-07T07:29:23.469Z,18.51
2022-08-07T07:31:44.290Z,18.61
2022-08-07T07:34:20.447Z,18.80
2022-08-07T07:36:53.834Z,18.83
2022-08-07T07:39:25.669Z,18.92
2022-08-07T07:42:13.760Z,19.06
2022-08-07T07:44:49.461Z,19.13
2022-08-07T07:47:23.874Z,19.22
2022-08-07T07:50:34.645Z,19.33
2022-08-07T07:52:47.103Z,19.44
2022-08-07T07:55:19.060Z,19.50
2022-08-07T07:57:53.235Z,19.60
2022-08-07T08:00:31.447Z,19.65
2022-08-07T08:03:16.399Z,19.73
2022-08-07T08:05:55.295Z,19.76
2022-08-07T08:08:34.654Z,19.82
2022-08-07T08:11:07.988Z,19.90
2022-08-07T08:13:52.885Z,19.96
2022-08-07T08:16:39.170Z,20.04
2022-08-07T08:20:15.699Z,20.06
2022-08-07T08:22:21.757Z,20.16
2022-08-07T08:25:26.849Z,20.42
2022-08-07T08:28:23.906Z,20.29
2022-08-07T08:31:14.743Z,20.57
2022-08-07T08:33:49.573Z,20.81
2022-08-07T08:36:30.575Z,20.94
2022-08-07T08:39:02.211Z,21.00
2022-08-07T08:41:58.519Z,21.07
2022-08-07T08:44:47.383Z,21.17
2022-08-07T08:47:31.372Z,21.30
2022-08-07T08:50:28.584Z,21.50
2022-08-07T08:53:33.871Z,21.72
2022-08-07T08:56:10.717Z,21.59
2022-08-07T08:58:50.633Z,22.01
2022-08-07T09:01:59.480Z,22.13
2022-08-07T09:04:55.615Z,22.02
2022-08-07T09:07:57.606Z,22.24
2022-08-07T09:10:44.965Z,22.32
2022-08-07T09:13:40.055Z,22.42
2022-08-07T09:17:01.830Z,22.09
2022-08-07T09:20:34.652Z,22.63
2022-08-07T09:24:33.192Z,22.82
2022-08-07T09:26:47.795Z,23.07
2022-08-07T09:30:08.529Z,23.12
2022-08-07T09:33:05.231Z,23.20
2022-08-07T09:36:12.355Z,23.27
2022-08-07T09:39:55.488Z,23.51
2022-08-07T09:43:09.270Z,24.43
2022-08-07T09:47:27.512Z,25.37
2022-08-07T09:50:02.605Z,26.25
2022-08-07T09:52:52.142Z,27.01
2022-08-07T09:55:29.757Z,27.63
2022-08-07T09:58:41.489Z,28.27
2022-08-07T10:01:51.904Z,28.81
2022-08-07T10:04:47.732Z,29.30
2022-08-07T10:08:01.071Z,29.94
2022-08-07T10:12:01.427Z,30.43
2022-08-07T10:14:39.785Z,30.91
2022-08-07T10:18:02.666Z,31.51
2022-08-07T10:21:19.736Z,31.67
2022-08-07T10:24:28.797Z,31.53
2022-08-07T10:27:46.598Z,31.69
2022-08-07T10:30:50.517Z,31.68
2022-08-07T10:34:18.447Z,32.38
2022-08-07T10:38:34.982Z,32.18
2022-08-07T10:41:01.266Z,33.41
2022-08-07T10:43:43.164Z,33.94
2022-08-07T10:46:20.417Z,32.81
2022-08-07T10:49:16.062Z,32.95
2022-08-07T10:52:14.130Z,34.34
2022-08-07T10:55:01.674Z,34.30
2022-08-07T10:57:56.777Z,34.19
2022-08-07T11:00:39.673Z,35.03
2022-08-07T11:03:23.832Z,34.42
2022-08-07T11:06:18.171Z,33.12
2022-08-07T11:09:03.872Z,34.37
2022-08-07T11:12:03.375Z,34.22
2022-08-07T11:15:00.702Z,35.35
2022-08-07T11:17:54.500Z,35.12
2022-08-07T11:20:49.049Z,35.68
2022-08-07T11:24:11.520Z,36.26
2022-08-07T11:27:33.703Z,37.14
2022-08-07T11:30:19.297Z,36.28
2022-08-07T11:33:14.999Z,36.98
2022-08-07T11:36:14.763Z,37.29
2022-08-07T11:39:39.582Z,37.14
2022-08-07T11:42:30.415Z,37.68
2022-08-07T11:45:36.129Z,37.82
2022-08-07T11:49:27.731Z,38.27
2022-08-07T11:51:59.463Z,38.00
2022-08-07T11:56:13.969Z,38.28
2022-08-07T11:58:21.829Z,37.88
2022-08-07T12:01:06.669Z,37.93
2022-08-07T12:04:09.374Z,38.42
2022-08-07T12:07:27.134Z,37.68
2022-08-07T12:11:08.040Z,38.55
2022-08-07T12:14:31.787Z,39.81
2022-08-07T12:17:10.390Z,39.66
2022-08-07T12:20:29.671Z,37.33
2022-08-07T12:24:05.981Z,38.65
2022-08-07T12:26:51.125Z,39.52
2022-08-07T12:29:37.730Z,40.43
2022-08-07T12:32:22.063Z,40.72
2022-08-07T12:34:55.612Z,40.22
2022-08-07T12:37:28.336Z,38.32
2022-08-07T12:40:46.301Z,39.38
2022-08-07T12:44:03.357Z,39.56
2022-08-07T12:46:32.349Z,39.55
2022-08-07T12:49:25.609Z,36.84
2022-08-07T12:52:18.191Z,38.29
2022-08-07T12:55:03.946Z,37.32
2022-08-07T12:58:02.182Z,37.99
2022-08-07T13:00:54.603Z,39.19
2022-08-07T13:04:02.432Z,39.56
2022-08-07T13:07:05.550Z,40.57
2022-08-07T13:10:28.873Z,39.92
2022-08-07T13:13:47.924Z,40.50
2022-08-07T13:16:37.815Z,40.27
2022-08-07T13:19:34.953Z,41.77
2022-08-07T13:22:40.674Z,41.91
2022-08-07T13:25:29.015Z,42.23
2022-08-07T13:28:18.660Z,42.68
2022-08-07T13:31:46.268Z,43.05
2022-08-07T13:34:51.381Z,43.72
2022-08-07T13:37:58.533Z,43.78
2022-08-07T13:40:58.069Z,44.03
2022-08-07T13:43:30.186Z,44.37
2022-08-07T13:46:11.378Z,44.29
2022-08-07T13:49:02.150Z,43.90
2022-08-07T13:52:04.771Z,44.32
2022-08-07T13:54:31.184Z,44.78
2022-08-07T13:57:11.555Z,44.58
2022-08-07T13:59:57.987Z,44.88
2022-08-07T14:02:32.160Z,44.35
2022-08-07T14:05:21.999Z,44.41
2022-08-07T14:08:01.005Z,45.03
2022-08-07T14:10:42.048Z,45.89
2022-08-07T14:13:18.880Z,45.51
2022-08-07T14:16:03.492Z,45.38
2022-08-07T14:18:56.971Z,45.26
2022-08-07T14:22:00.967Z,45.34
2022-08-07T14:24:43.338Z,45.57
2022-08-07T14:28:09.199Z,45.37
2022-08-07T14:30:11.928Z,45.73
2022-08-07T14:32:45.966Z,45.68
2022-08-07T14:35:44.975Z,46.00
2022-08-07T14:38:31.439Z,45.51
2022-08-07T14:41:14.620Z,45.88
2022-08-07T14:43:58.834Z,45.73
2022-08-07T14:46:38.302Z,45.78
2022-08-07T14:49:57.479Z,46.05
2022-08-07T14:52:27.547Z,45.80
2022-08-07T14:54:58.746Z,44.58
2022-08-07T14:57:54.980Z,42.33
2022-08-07T15:00:29.740Z,41.26
2022-08-07T15:03:19.554Z,41.48
2022-08-07T15:05:54.140Z,40.50
2022-08-07T15:08:54.742Z,38.49
2022-08-07T15:11:54.080Z,38.66
2022-08-07T15:17:19.081Z,37.40
2022-08-07T15:20:33.363Z,37.04
2022-08-07T15:22:55.181Z,36.06
2022-08-07T15:28:32.077Z,34.42
2022-08-07T15:31:12.183Z,34.07
2022-08-07T15:33:42.760Z,33.96
2022-08-07T15:36:12.691Z,34.35
2022-08-07T15:42:46.331Z,33.80
2022-08-07T15:48:02.390Z,35.33
2022-08-07T15:51:02.067Z,36.25
2022-08-07T15:53:52.619Z,36.38
2022-08-07T15:56:37.502Z,37.10
2022-08-07T15:59:17.501Z,37.46
2022-08-07T16:02:02.474Z,36.63
2022-08-07T16:04:34.633Z,36.31
2022-08-07T16:08:32.327Z,36.11
2022-08-07T16:10:22.126Z,35.63
2022-08-07T16:13:57.469Z,34.78
2022-08-07T16:16:48.222Z,34.15
2022-08-07T16:19:58.652Z,33.71
2022-08-07T16:22:58.844Z,33.61
2022-08-07T16:26:01.997Z,33.31
2022-08-07T16:30:07.683Z,32.81
2022-08-07T16:32:34.810Z,32.23
2022-08-07T16:35:51.884Z,32.03
2022-08-07T16:39:01.668Z,31.65
2022-08-07T16:42:27.130Z,31.55
2022-08-07T16:46:47.583Z,31.26
2022-08-07T16:49:04.252Z,31.06
2022-08-07T16:52:35.401Z,31.50
2022-08-07T16:55:50.453Z,32.00
2022-08-07T16:59:15.084Z,32.43
2022-08-07T17:02:52.351Z,32.33
2022-08-07T17:06:02.139Z,33.09
2022-08-07T17:08:10.987Z,33.46
2022-08-07T17:10:54.727Z,33.88
2022-08-07T17:14:17.580Z,34.38
2022-08-07T17:16:56.103Z,34.98
2022-08-07T17:20:03.497Z,35.26
2022-08-07T17:23:00.570Z,35.71
2022-08-07T17:25:52.565Z,35.32
2022-08-07T17:28:53.499Z,35.99
2022-08-07T17:32:30.328Z,36.11
2022-08-07T17:35:51.603Z,36.21
2022-08-07T17:38:35.089Z,35.99
2022-08-07T17:42:03.720Z,36.02
2022-08-07T17:44:50.773Z,36.18
2022-08-07T17:47:41.851Z,36.19
2022-08-07T17:50:30.590Z,35.99
2022-08-07T17:53:55.705Z,35.96
2022-08-07T17:56:26.119Z,35.96
2022-08-07T17:59:01.860Z,35.59
2022-08-07T18:02:09.219Z,35.79
2022-08-07T18:06:03.234Z,35.72
2022-08-07T18:09:02.046Z,35.36
2022-08-07T18:12:17.433Z,35.33
2022-08-07T18:15:11.813Z,35.10
2022-08-07T18:18:44.715Z,34.62
2022-08-07T18:21:38.336Z,34.31
2022-08-07T18:24:45.576Z,34.27
2022-08-07T18:27:56.742Z,33.98
2022-08-07T18:30:49.738Z,33.51
2022-08-07T18:34:35.839Z,32.98
2022-08-07T18:37:09.406Z,32.59
2022-08-07T18:40:42.632Z,32.02
2022-08-07T18:43:49.774Z,31.54
2022-08-07T18:46:29.324Z,31.13
2022-08-07T18:50:19.730Z,30.76
2022-08-07T18:52:54.003Z,30.33
2022-08-07T18:55:57.407Z,30.01
2022-08-07T18:59:47.007Z,29.64
2022-08-07T19:02:42.449Z,29.25
2022-08-07T19:06:03.557Z,28.90
2022-08-07T19:08:35.537Z,28.58
2022-08-07T19:11:15.474Z,27.72
2022-08-07T19:14:17.319Z,27.60
2022-08-07T19:17:07.921Z,27.33
2022-08-07T19:20:30.217Z,26.76
2022-08-07T19:23:58.287Z,26.23
2022-08-07T19:27:09.240Z,25.51
2022-08-07T19:31:00.299Z,26.01
2022-08-07T19:32:44.248Z,25.94
2022-08-07T19:35:25.646Z,25.65
2022-08-07T19:37:59.675Z,25.65
2022-08-07T19:40:36.221Z,25.09
2022-08-07T19:43:21.651Z,25.28
2022-08-07T19:46:10.069Z,25.16
2022-08-07T19:48:53.738Z,25.02
2022-08-07T19:51:52.343Z,24.83
2022-08-07T19:54:33.334Z,24.67
2022-08-07T19:58:02.675Z,24.54
2022-08-07T20:00:10.134Z,24.34
2022-08-07T20:02:52.048Z,24.17
2022-08-07T20:05:30.153Z,24.01
2022-08-07T20:08:02.578Z,23.86
2022-08-07T20:10:55.195Z,23.73
2022-08-07T20:13:42.956Z,23.57
2022-08-07T20:16:35.869Z,23.43
2022-08-07T20:19:09.908Z,23.29
2022-08-07T20:21:47.820Z,23.16
2022-08-07T20:24:30.006Z,23.04
2022-08-07T20:27:07.490Z,22.87
2022-08-07T20:29:58.341Z,22.74
2022-08-07T20:32:44.035Z,22.59
2022-08-07T20:35:17.780Z,22.47
2022-08-07T20:37:58.318Z,22.35
2022-08-07T20:40:34.621Z,22.20
2022-08-07T20:43:14.733Z,22.09
2022-08-07T20:46:26.874Z,21.91
2022-08-07T20:48:58.118Z,21.88
2022-08-07T20:51:35.803Z,21.78
2022-08-07T20:54:11.820Z,21.68
2022-08-07T20:56:45.922Z,21.59
2022-08-07T21:00:04.926Z,21.49
2022-08-07T21:02:39.068Z,21.38
2022-08-07T21:05:18.649Z,21.26
2022-08-07T21:08:15.813Z,21.14
2022-08-07T21:10:45.103Z,21.08
2022-08-07T21:13:24.670Z,20.99
2022-08-07T21:16:12.481Z,20.88
2022-08-07T21:18:46.254Z,20.81
2022-08-07T21:21:21.374Z,20.71
2022-08-07T21:24:15.282Z,20.60
2022-08-07T21:26:51.278Z,20.48
2022-08-07T21:29:33.401Z,20.39
2022-08-07T21:32:46.732Z,20.40
2022-08-07T21:35:18.512Z,20.25
2022-08-07T21:38:21.653Z,20.20
2022-08-07T21:40:59.094Z,20.13
2022-08-07T21:44:29.983Z,20.18
2022-08-07T21:47:20.513Z,20.13
2022-08-07T21:50:17.529Z,20.06
2022-08-07T21:53:29.127Z,19.97
2022-08-07T21:56:37.819Z,19.94
2022-08-07T22:00:11.339Z,19.86
2022-08-07T22:03:03.562Z,19.82
2022-08-07T22:05:49.915Z,19.73
2022-08-07T22:08:28.588Z,19.70
2022-08-07T22:11:04.904Z,19.67
2022-08-07T22:13:50.964Z,19.62
2022-08-07T22:16:41.851Z,19.63
2022-08-07T22:19:30.088Z,19.59
2022-08-07T22:22:28.973Z,19.54
2022-08-07T22:25:28.555Z,19.48
2022-08-07T22:28:30.816Z,19.44
2022-08-07T22:31:55.969Z,19.39
2022-08-07T22:34:54.588Z,19.40
2022-08-07T22:38:04.572Z,19.42
2022-08-07T22:40:57.190Z,19.35
2022-08-07T22:43:41.715Z,19.33
2022-08-07T22:47:04.132Z,19.31
2022-08-07T22:50:33.181Z,19.36
2022-08-07T22:54:08.866Z,19.39
2022-08-07T22:56:57.788Z,19.36
2022-08-07T22:59:52.761Z,19.34
2022-08-07T23:02:51.238Z,19.35
2022-08-07T23:06:14.979Z,19.35
2022-08-07T23:10:06.337Z,19.40
2022-08-07T23:13:02.884Z,19.38
2022-08-07T23:16:06.956Z,19.39
2022-08-07T23:19:47.750Z,19.36
2022-08-07T23:22:58.312Z,19.38
2022-08-07T23:25:58.215Z,19.34
2022-08-07T23:29:17.136Z,19.31
2022-08-07T23:34:21.946Z,19.28
2022-08-07T23:36:04.299Z,19.21
2022-08-07T23:39:22.448Z,19.18
2022-08-07T23:42:21.520Z,19.13
2022-08-07T23:45:33.275Z,19.08
2022-08-07T23:48:34.109Z,19.07
2022-08-07T23:52:59.824Z,19.03
2022-08-07T23:54:52.804Z,18.98
2022-08-07T23:57:47.931Z,18.99
